createdAt,value
2018-11-29T00:03:01.728Z,84.04
2018-11-29T00:06:12.846Z,84.08
2018-11-29T00:09:16.817Z,83.94
2018-11-29T00:12:20.787Z,83.73
2018-11-29T00:15:24.747Z,83.87
2018-11-29T00:18:28.697Z,83.37
2018-11-29T00:21:32.658Z,83.92
2018-11-29T00:24:36.812Z,84.00
2018-11-29T00:27:40.800Z,83.51
2018-11-29T00:30:44.762Z,83.66
2018-11-29T00:33:48.735Z,84.24
2018-11-29T00:36:52.706Z,84.13
2018-11-29T00:39:56.674Z,84.57
2018-11-29T00:43:00.667Z,84.56
2018-11-29T00:46:04.833Z,85.21
2018-11-29T00:49:08.798Z,85.06
2018-11-29T00:52:13.107Z,85.27
2018-11-29T00:55:20.005Z,84.89
2018-11-29T00:58:23.966Z,84.85
2018-11-29T01:01:27.948Z,84.86
2018-11-29T01:04:31.922Z,85.04
2018-11-29T01:07:35.891Z,85.08
2018-11-29T01:10:39.863Z,85.00
2018-11-29T01:13:43.834Z,84.24
2018-11-29T01:16:47.796Z,84.25
2018-11-29T01:19:51.788Z,84.61
2018-11-29T01:22:55.934Z,84.64
2018-11-29T01:26:00.242Z,84.89
2018-11-29T01:29:04.556Z,84.67
2018-11-29T01:32:08.531Z,84.64
2018-11-29T01:35:13.409Z,84.86
2018-11-29T01:38:17.362Z,84.71
2018-11-29T01:41:21.339Z,84.65
2018-11-29T01:44:25.329Z,84.92
2018-11-29T01:47:29.294Z,84.73
2018-11-29T01:50:33.254Z,84.82
2018-11-29T01:53:37.219Z,84.23
2018-11-29T01:56:41.191Z,84.88
2018-11-29T01:59:45.168Z,85.11
2018-11-29T02:02:50.559Z,85.00
2018-11-29T02:05:54.528Z,85.02
2018-11-29T02:08:58.513Z,85.48
2018-11-29T02:12:02.469Z,84.97
2018-11-29T02:15:07.334Z,84.83
2018-11-29T02:18:11.302Z,85.28
2018-11-29T02:21:15.405Z,85.41
2018-11-29T02:24:19.387Z,85.26
2018-11-29T02:27:23.353Z,84.94
2018-11-29T02:30:27.337Z,85.26
2018-11-29T02:33:31.486Z,84.87
2018-11-29T02:36:35.454Z,84.66
2018-11-29T02:39:39.441Z,84.67
2018-11-29T02:42:44.066Z,84.45
2018-11-29T02:45:48.042Z,84.88
2018-11-29T02:48:52.005Z,84.81
2018-11-29T02:51:56.176Z,84.87
2018-11-29T02:55:00.318Z,85.22
2018-11-29T02:58:04.547Z,84.65
2018-11-29T03:01:08.742Z,84.71
2018-11-29T03:04:12.733Z,84.72
2018-11-29T03:07:16.871Z,84.66
2018-11-29T03:10:27.235Z,84.86
2018-11-29T03:13:31.386Z,85.15
2018-11-29T03:16:35.358Z,84.82
2018-11-29T03:19:39.327Z,85.30
2018-11-29T03:22:43.321Z,85.38
2018-11-29T03:25:47.306Z,85.12
2018-11-29T03:28:51.278Z,85.22
2018-11-29T03:31:55.435Z,85.33
2018-11-29T03:34:59.584Z,85.59
2018-11-29T03:38:03.751Z,85.34
2018-11-29T03:41:08.016Z,85.23
2018-11-29T03:44:11.982Z,84.86
2018-11-29T03:47:15.966Z,85.27
2018-11-29T03:50:20.115Z,85.44
2018-11-29T03:53:24.077Z,85.50
2018-11-29T03:56:28.226Z,85.44
2018-11-29T03:59:32.371Z,85.13
2018-11-29T04:02:36.334Z,85.37
2018-11-29T04:05:40.323Z,85.21
2018-11-29T04:08:44.273Z,84.95
2018-11-29T04:11:48.245Z,85.30
2018-11-29T04:14:52.204Z,85.02
2018-11-29T04:17:56.367Z,85.36
2018-11-29T04:21:00.335Z,85.39
2018-11-29T04:24:04.315Z,85.46
2018-11-29T04:27:08.279Z,85.36
2018-11-29T04:30:16.365Z,85.79
2018-11-29T04:33:20.354Z,85.66
2018-11-29T04:36:24.323Z,86.03
2018-11-29T04:39:28.295Z,86.48
2018-11-29T04:42:32.260Z,86.59
2018-11-29T04:45:47.963Z,86.44
2018-11-29T04:48:51.955Z,86.34
2018-11-29T04:51:55.914Z,86.16
2018-11-29T04:54:59.904Z,86.83
2018-11-29T04:58:03.883Z,87.07
2018-11-29T05:01:08.187Z,86.77
2018-11-29T05:04:12.337Z,86.80
2018-11-29T05:07:16.321Z,87.10
2018-11-29T05:10:20.323Z,87.46
2018-11-29T05:13:24.250Z,87.53
2018-11-29T05:16:28.221Z,87.43
2018-11-29T05:19:32.174Z,87.23
2018-11-29T05:22:36.147Z,87.66
2018-11-29T05:25:40.326Z,87.76
2018-11-29T05:28:44.294Z,87.82
2018-11-29T05:31:48.324Z,87.75
2018-11-29T05:34:52.618Z,87.92
2018-11-29T05:37:56.608Z,87.92
2018-11-29T05:41:00.751Z,87.95
2018-11-29T05:44:04.902Z,88.00
2018-11-29T05:47:08.881Z,87.73
2018-11-29T05:50:13.166Z,87.89
2018-11-29T05:53:17.144Z,87.98
2018-11-29T05:56:21.303Z,88.08
2018-11-29T05:59:25.274Z,88.42
2018-11-29T06:02:29.242Z,88.27
2018-11-29T06:05:33.226Z,88.49
2018-11-29T06:08:37.198Z,88.58
2018-11-29T06:11:41.156Z,88.22
2018-11-29T06:14:45.162Z,88.79
2018-11-29T06:17:49.122Z,88.92
2018-11-29T06:20:53.102Z,89.01
2018-11-29T06:23:57.100Z,88.86
2018-11-29T06:27:01.050Z,88.52
2018-11-29T06:30:08.758Z,88.75
2018-11-29T06:33:12.901Z,89.37
2018-11-29T06:36:16.861Z,89.25
2018-11-29T06:39:20.842Z,88.76
2018-11-29T06:42:24.986Z,89.20
2018-11-29T06:45:28.966Z,89.05
2018-11-29T06:48:33.178Z,88.86
2018-11-29T06:51:37.322Z,89.26
2018-11-29T06:54:41.278Z,89.16
2018-11-29T06:57:45.248Z,89.43
2018-11-29T07:00:49.219Z,89.75
2018-11-29T07:03:53.182Z,89.45
2018-11-29T07:06:57.243Z,89.33
2018-11-29T07:10:01.214Z,89.39
2018-11-29T07:13:06.678Z,89.64
2018-11-29T07:16:10.823Z,89.81
2018-11-29T07:19:15.079Z,89.85
2018-11-29T07:22:18.739Z,89.79
2018-11-29T07:25:23.090Z,89.87
2018-11-29T07:28:27.006Z,90.04
2018-11-29T07:31:30.972Z,89.63
2018-11-29T07:34:35.039Z,90.42
2018-11-29T07:37:39.271Z,90.13
2018-11-29T07:40:43.242Z,89.65
2018-11-29T07:43:47.196Z,90.21
2018-11-29T07:46:51.154Z,90.41
2018-11-29T07:49:55.115Z,90.37
2018-11-29T07:52:59.418Z,89.84
2018-11-29T07:56:03.386Z,90.42
2018-11-29T07:59:07.356Z,90.56
2018-11-29T08:02:11.589Z,90.17
2018-11-29T08:05:16.115Z,90.04
2018-11-29T08:08:20.263Z,90.43
2018-11-29T08:11:24.484Z,90.31
2018-11-29T08:14:28.780Z,90.59
2018-11-29T08:17:33.081Z,90.22
2018-11-29T08:20:37.821Z,90.59
2018-11-29T08:23:42.030Z,91.32
2018-11-29T08:26:46.226Z,90.81
2018-11-29T08:29:50.177Z,91.16
2018-11-29T08:32:54.133Z,90.86
2018-11-29T08:35:58.083Z,90.93
2018-11-29T08:39:02.116Z,90.95
2018-11-29T08:42:06.105Z,90.74
2018-11-29T08:45:11.037Z,91.14
2018-11-29T08:48:14.991Z,91.01
2018-11-29T08:51:19.269Z,91.36
2018-11-29T08:54:23.410Z,91.14
2018-11-29T08:57:27.558Z,91.39
2018-11-29T09:00:31.755Z,91.15
2018-11-29T09:03:35.722Z,91.03
2018-11-29T09:06:39.686Z,90.79
2018-11-29T09:09:43.658Z,91.59
2018-11-29T09:12:47.605Z,91.50
2018-11-29T09:15:51.582Z,91.70
2018-11-29T09:18:55.530Z,91.61
2018-11-29T09:21:59.504Z,91.51
2018-11-29T09:25:03.928Z,91.74
2018-11-29T09:28:07.886Z,91.66
2018-11-29T09:31:11.918Z,91.35
2018-11-29T09:34:15.890Z,91.74
2018-11-29T09:37:20.031Z,91.36
2018-11-29T09:40:24.509Z,91.67
2018-11-29T09:43:28.656Z,91.57
2018-11-29T09:46:32.826Z,91.83
2018-11-29T09:49:36.779Z,91.81
2018-11-29T09:52:41.383Z,91.97
2018-11-29T09:55:45.351Z,91.63
2018-11-29T09:58:49.312Z,91.49
2018-11-29T10:01:53.427Z,92.10
2018-11-29T10:04:57.378Z,92.05
2018-11-29T10:08:01.354Z,91.85
2018-11-29T10:11:06.048Z,92.04
2018-11-29T10:14:10.019Z,91.94
2018-11-29T10:17:13.979Z,92.01
2018-11-29T10:20:17.946Z,91.96
2018-11-29T10:23:21.906Z,92.33
2018-11-29T10:26:25.889Z,92.23
2018-11-29T10:29:29.919Z,92.32
2018-11-29T10:32:33.874Z,92.14
2018-11-29T10:35:38.096Z,92.41
2018-11-29T10:38:42.239Z,92.23
2018-11-29T10:41:46.393Z,92.21
2018-11-29T10:44:50.346Z,91.84
2018-11-29T10:47:55.267Z,92.13
2018-11-29T10:50:59.418Z,91.92
2018-11-29T10:54:03.842Z,91.78
2018-11-29T10:57:08.506Z,92.12
2018-11-29T11:01:21.464Z,91.75
2018-11-29T11:04:25.443Z,92.04
2018-11-29T11:07:29.414Z,92.14
2018-11-29T11:10:33.385Z,91.83
2018-11-29T11:13:38.058Z,92.07
2018-11-29T11:16:42.019Z,92.23
2018-11-29T11:19:45.975Z,92.38
2018-11-29T11:22:49.942Z,92.33
2018-11-29T11:25:53.898Z,92.36
2018-11-29T11:28:57.862Z,92.59
2018-11-29T11:32:01.854Z,92.43
2018-11-29T11:35:06.302Z,92.32
2018-11-29T11:38:10.280Z,92.28
2018-11-29T11:41:14.271Z,92.63
2018-11-29T11:44:18.238Z,92.20
2018-11-29T11:47:22.206Z,92.58
2018-11-29T11:50:26.203Z,92.42
2018-11-29T11:53:30.171Z,92.45
2018-11-29T11:56:34.319Z,92.38
2018-11-29T11:59:38.293Z,92.73
2018-11-29T12:02:43.381Z,92.43
2018-11-29T12:05:47.315Z,92.35
2018-11-29T12:08:51.270Z,92.70
2018-11-29T12:11:55.248Z,92.56
2018-11-29T12:14:59.395Z,92.94
2018-11-29T12:18:03.682Z,92.72
2018-11-29T12:21:07.650Z,92.79
2018-11-29T12:24:11.610Z,92.58
2018-11-29T12:27:15.588Z,93.09
2018-11-29T12:30:22.743Z,93.21
2018-11-29T12:33:26.881Z,93.20
2018-11-29T12:36:30.934Z,92.39
2018-11-29T12:39:34.907Z,92.53
2018-11-29T12:42:38.875Z,93.10
2018-11-29T12:45:42.846Z,92.68
2018-11-29T12:48:46.846Z,92.77
2018-11-29T12:51:50.813Z,92.80
2018-11-29T12:54:54.961Z,93.26
2018-11-29T12:58:05.446Z,92.92
2018-11-29T13:01:02.885Z,93.14
2018-11-29T13:04:06.893Z,93.07
2018-11-29T13:07:11.022Z,93.34
2018-11-29T13:10:16.552Z,92.72
2018-11-29T13:13:20.518Z,93.01
2018-11-29T13:16:24.487Z,93.26
2018-11-29T13:19:28.452Z,92.85
2018-11-29T13:22:33.216Z,93.20
2018-11-29T13:25:36.816Z,93.37
2018-11-29T13:28:40.792Z,93.43
2018-11-29T13:31:44.768Z,93.61
2018-11-29T13:34:48.898Z,93.29
2018-11-29T13:37:55.323Z,93.16
2018-11-29T13:40:59.302Z,93.69
2018-11-29T13:44:03.522Z,92.80
2018-11-29T13:47:07.830Z,93.13
2018-11-29T13:50:15.537Z,93.02
2018-11-29T13:53:19.489Z,93.43
2018-11-29T13:56:23.458Z,93.16
2018-11-29T13:59:27.430Z,93.37
2018-11-29T14:02:31.486Z,92.98
2018-11-29T14:05:36.277Z,93.50
2018-11-29T14:08:40.256Z,93.66
2018-11-29T14:11:44.207Z,92.93
2018-11-29T14:14:48.176Z,93.29
2018-11-29T14:17:52.142Z,93.28
2018-11-29T14:20:56.279Z,93.45
2018-11-29T14:24:00.242Z,93.10
2018-11-29T14:27:04.571Z,93.23
2018-11-29T14:30:12.843Z,93.25
2018-11-29T14:33:16.816Z,93.34
2018-11-29T14:36:21.113Z,93.28
2018-11-29T14:39:25.070Z,93.37
2018-11-29T14:42:29.075Z,92.92
2018-11-29T14:45:33.367Z,93.38
2018-11-29T14:48:37.329Z,92.91
2018-11-29T14:51:47.948Z,92.58
2018-11-29T14:54:45.934Z,93.15
2018-11-29T14:57:49.895Z,93.25
2018-11-29T15:00:54.040Z,93.24
2018-11-29T15:03:58.009Z,93.30
2018-11-29T15:07:02.159Z,92.75
2018-11-29T15:10:07.345Z,92.99
2018-11-29T15:13:12.179Z,93.00
2018-11-29T15:16:16.145Z,92.83
2018-11-29T15:19:20.120Z,92.65
2018-11-29T15:22:24.098Z,92.50
2018-11-29T15:25:28.060Z,92.76
2018-11-29T15:28:32.198Z,93.02
2018-11-29T15:31:36.182Z,92.91
2018-11-29T15:34:40.319Z,92.88
2018-11-29T15:37:44.278Z,92.53
2018-11-29T15:40:48.298Z,92.76
2018-11-29T15:43:52.263Z,92.79
2018-11-29T15:46:56.259Z,92.93
2018-11-29T15:50:00.204Z,92.62
2018-11-29T15:53:04.602Z,93.04
2018-11-29T15:56:08.570Z,92.68
2018-11-29T15:59:12.536Z,92.57
2018-11-29T16:02:16.707Z,92.76
2018-11-29T16:05:20.662Z,92.68
2018-11-29T16:08:24.621Z,92.77
2018-11-29T16:11:28.598Z,92.56
2018-11-29T16:14:32.558Z,92.24
2018-11-29T16:17:36.531Z,92.37
2018-11-29T16:20:40.538Z,92.66
2018-11-29T16:23:44.502Z,92.34
2018-11-29T16:26:48.459Z,91.87
2018-11-29T16:29:52.425Z,92.01
2018-11-29T16:32:57.995Z,91.81
2018-11-29T16:36:02.037Z,91.92
2018-11-29T16:39:07.511Z,91.99
2018-11-29T16:42:11.655Z,92.04
2018-11-29T16:45:15.968Z,92.04
2018-11-29T16:48:19.774Z,92.16
2018-11-29T16:51:23.749Z,92.07
2018-11-29T16:54:27.731Z,92.28
2018-11-29T16:57:32.034Z,92.04
2018-11-29T17:00:36.091Z,92.21
2018-11-29T17:03:40.252Z,92.03
2018-11-29T17:06:44.229Z,92.18
2018-11-29T17:09:48.212Z,91.99
2018-11-29T17:12:54.692Z,91.88
2018-11-29T17:15:58.651Z,91.90
2018-11-29T17:19:02.755Z,91.86
2018-11-29T17:22:07.120Z,91.87
2018-11-29T17:25:12.399Z,92.14
2018-11-29T17:28:16.378Z,92.10
2018-11-29T17:31:20.363Z,91.85
2018-11-29T17:34:24.323Z,92.18
2018-11-29T17:37:28.303Z,92.26
2018-11-29T17:40:32.622Z,91.86
2018-11-29T17:43:36.644Z,91.97
2018-11-29T17:46:40.630Z,92.21
2018-11-29T17:49:44.595Z,91.57
2018-11-29T17:52:49.107Z,92.07
2018-11-29T17:55:53.338Z,92.29
2018-11-29T17:58:57.484Z,92.09
2018-11-29T18:02:01.482Z,92.06
2018-11-29T18:05:06.766Z,92.01
2018-11-29T18:08:10.734Z,92.07
2018-11-29T18:11:14.703Z,92.31
2018-11-29T18:14:18.695Z,92.06
2018-11-29T18:17:22.663Z,92.26
2018-11-29T18:20:26.628Z,92.00
2018-11-29T18:23:30.586Z,91.89
2018-11-29T18:26:34.564Z,92.15
2018-11-29T18:29:38.523Z,92.11
2018-11-29T18:32:42.504Z,92.39
2018-11-29T18:35:46.471Z,92.22
2018-11-29T18:38:50.447Z,91.90
2018-11-29T18:41:54.410Z,91.91
2018-11-29T18:44:58.381Z,92.47
2018-11-29T18:48:02.354Z,91.94
2018-11-29T18:51:06.324Z,92.07
2018-11-29T18:54:10.290Z,91.89
2018-11-29T18:57:14.257Z,92.09
2018-11-29T19:00:21.395Z,92.28
2018-11-29T19:03:27.068Z,92.19
2018-11-29T19:06:31.106Z,92.32
2018-11-29T19:09:35.011Z,92.27
2018-11-29T19:12:39.986Z,91.84
2018-11-29T19:15:43.954Z,92.21
2018-11-29T19:18:47.923Z,92.73
2018-11-29T19:21:51.901Z,92.51
2018-11-29T19:24:55.859Z,92.67
2018-11-29T19:27:59.839Z,92.70
2018-11-29T19:31:03.853Z,92.43
2018-11-29T19:34:07.795Z,92.62
2018-11-29T19:37:11.807Z,92.46
2018-11-29T19:40:16.720Z,92.63
2018-11-29T19:43:20.687Z,92.37
2018-11-29T19:46:24.659Z,92.29
2018-11-29T19:49:28.631Z,91.96
2018-11-29T19:52:32.962Z,92.13
2018-11-29T19:55:36.939Z,92.15
2018-11-29T19:58:40.932Z,92.44
2018-11-29T20:01:45.078Z,91.86
2018-11-29T20:04:49.050Z,91.71
2018-11-29T20:07:53.017Z,92.19
2018-11-29T20:10:56.994Z,91.85
2018-11-29T20:14:00.967Z,91.56
2018-11-29T20:17:05.916Z,91.43
2018-11-29T20:20:11.470Z,91.74
2018-11-29T20:23:15.441Z,91.72
2018-11-29T20:26:19.414Z,91.80
2018-11-29T20:29:23.387Z,92.07
2018-11-29T20:32:27.366Z,92.21
2018-11-29T20:35:31.691Z,92.09
2018-11-29T20:38:35.667Z,92.14
2018-11-29T20:41:39.629Z,91.96
2018-11-29T20:44:43.613Z,92.32
2018-11-29T20:47:47.577Z,92.53
2018-11-29T20:50:52.447Z,92.30
2018-11-29T20:53:56.410Z,92.06
2018-11-29T20:57:00.378Z,92.29
2018-11-29T21:00:04.682Z,92.49
2018-11-29T21:03:09.344Z,92.42
2018-11-29T21:06:13.853Z,92.75
2018-11-29T21:09:17.815Z,92.50
2018-11-29T21:12:21.778Z,92.77
2018-11-29T21:15:25.755Z,92.62
2018-11-29T21:18:30.079Z,92.82
2018-11-29T21:21:34.062Z,92.41
2018-11-29T21:24:38.030Z,92.71
2018-11-29T21:27:42.010Z,92.36
2018-11-29T21:30:46.326Z,92.64
2018-11-29T21:33:50.315Z,92.44
2018-11-29T21:36:54.272Z,92.17
2018-11-29T21:39:58.258Z,92.70
2018-11-29T21:43:02.421Z,92.74
2018-11-29T21:46:06.413Z,92.12
2018-11-29T21:49:10.739Z,92.64
2018-11-29T21:52:14.702Z,92.77
2018-11-29T21:55:18.688Z,92.69
2018-11-29T21:58:22.667Z,92.43
2018-11-29T22:01:26.646Z,92.55
2018-11-29T22:04:30.679Z,92.55
2018-11-29T22:07:34.829Z,92.60
2018-11-29T22:10:38.811Z,92.35
2018-11-29T22:13:42.823Z,92.62
2018-11-29T22:16:46.786Z,92.53
2018-11-29T22:19:50.746Z,91.97
2018-11-29T22:22:54.718Z,92.35
2018-11-29T22:25:59.869Z,92.57
2018-11-29T22:29:03.839Z,92.19
2018-11-29T22:32:07.811Z,92.01
2018-11-29T22:35:11.778Z,92.25
2018-11-29T22:38:15.743Z,92.06
2018-11-29T22:41:19.731Z,92.02
2018-11-29T22:44:23.697Z,92.06
2018-11-29T22:47:27.842Z,92.41
2018-11-29T22:50:31.843Z,92.38
2018-11-29T22:53:35.814Z,92.17
2018-11-29T22:56:39.778Z,92.03
2018-11-29T22:59:43.752Z,92.15
2018-11-29T23:02:49.181Z,92.08
2018-11-29T23:05:53.171Z,91.92
2018-11-29T23:08:57.511Z,91.54
2018-11-29T23:12:01.488Z,91.92
2018-11-29T23:15:07.496Z,91.45
2018-11-29T23:18:11.455Z,91.60
2018-11-29T23:21:15.434Z,91.70
2018-11-29T23:24:19.399Z,91.48
2018-11-29T23:27:23.375Z,91.97
2018-11-29T23:30:27.349Z,91.80
2018-11-29T23:33:31.320Z,91.60
2018-11-29T23:36:35.302Z,91.61
2018-11-29T23:39:39.276Z,91.59
2018-11-29T23:42:43.306Z,91.81
2018-11-29T23:45:47.290Z,91.76
2018-11-29T23:48:51.267Z,91.82
2018-11-29T23:51:55.251Z,92.14
2018-11-29T23:54:59.218Z,91.60
2018-11-29T23:58:03.193Z,91.76
